createdAt,value
2023-09-27T00:00:15.171Z,86.27
2023-09-27T00:03:04.778Z,86.33
2023-09-27T00:05:33.344Z,86.06
2023-09-27T00:08:01.950Z,86.28
2023-09-27T00:10:29.931Z,85.83
2023-09-27T00:12:57.861Z,86.49
2023-09-27T00:15:26.613Z,86.55
2023-09-27T00:17:56.001Z,86.22
2023-09-27T00:20:24.070Z,86.07
2023-09-27T00:22:53.005Z,85.49
2023-09-27T00:25:21.114Z,85.49
2023-09-27T00:27:49.524Z,85.46
2023-09-27T00:30:17.835Z,86.06
2023-09-27T00:32:46.879Z,86.87
2023-09-27T00:35:21.014Z,87.31
2023-09-27T00:37:51.133Z,87.51
2023-09-27T00:40:23.164Z,87.89
2023-09-27T00:42:51.378Z,87.00
2023-09-27T00:45:19.956Z,87.31
2023-09-27T00:47:50.504Z,87.71
2023-09-27T00:50:18.916Z,87.02
2023-09-27T00:52:49.329Z,87.05
2023-09-27T00:55:23.286Z,87.08
2023-09-27T00:58:03.868Z,86.62
2023-09-27T01:00:32.313Z,86.06
2023-09-27T01:03:00.454Z,85.51
2023-09-27T01:05:29.221Z,85.13
2023-09-27T01:07:57.318Z,85.21
2023-09-27T01:10:25.361Z,84.95
2023-09-27T01:12:54.886Z,85.00
2023-09-27T01:15:23.158Z,86.15
2023-09-27T01:17:58.325Z,85.28
2023-09-27T01:20:28.917Z,84.82
2023-09-27T01:23:03.958Z,85.00
2023-09-27T01:25:37.567Z,85.24
2023-09-27T01:28:12.985Z,85.10
2023-09-27T01:30:41.256Z,85.62
2023-09-27T01:36:28.900Z,85.85
2023-09-27T01:38:56.868Z,85.92
2023-09-27T01:41:25.001Z,85.96
2023-09-27T01:43:53.881Z,85.45
2023-09-27T01:46:22.018Z,85.15
2023-09-27T01:48:50.096Z,85.59
2023-09-27T01:51:18.103Z,84.97
2023-09-27T01:53:47.176Z,84.64
2023-09-27T01:56:15.076Z,84.99
2023-09-27T01:58:43.080Z,85.67
2023-09-27T02:01:11.116Z,85.80
2023-09-27T02:03:39.273Z,85.51
2023-09-27T02:06:07.374Z,85.31
2023-09-27T02:08:35.349Z,85.72
2023-09-27T02:11:04.062Z,85.70
2023-09-27T02:13:32.067Z,85.53
2023-09-27T02:16:00.509Z,85.40
2023-09-27T02:18:28.798Z,85.42
2023-09-27T02:20:56.731Z,86.64
2023-09-27T02:23:24.759Z,86.88
2023-09-27T02:26:00.099Z,86.72
2023-09-27T02:28:28.098Z,86.12
2023-09-27T02:30:56.362Z,85.86
2023-09-27T02:33:24.523Z,86.19
2023-09-27T02:35:53.354Z,86.33
2023-09-27T02:38:21.670Z,86.82
2023-09-27T02:40:51.152Z,86.84
2023-09-27T02:43:19.047Z,86.99
2023-09-27T02:45:47.065Z,87.41
2023-09-27T02:48:15.010Z,87.58
2023-09-27T02:50:49.552Z,87.42
2023-09-27T02:53:17.792Z,87.36
2023-09-27T02:55:45.822Z,87.41
2023-09-27T02:58:13.869Z,87.81
2023-09-27T03:00:42.268Z,87.89
2023-09-27T03:03:11.177Z,87.94
2023-09-27T03:05:40.095Z,87.92
2023-09-27T03:08:09.208Z,87.93
2023-09-27T03:10:39.566Z,88.31
2023-09-27T03:13:09.311Z,88.33
2023-09-27T03:15:37.800Z,88.03
2023-09-27T03:18:06.617Z,87.74
2023-09-27T03:20:37.193Z,87.53
2023-09-27T03:23:05.248Z,87.40
2023-09-27T03:25:34.154Z,87.09
2023-09-27T03:28:02.133Z,86.93
2023-09-27T03:30:30.407Z,86.77
2023-09-27T03:32:58.556Z,86.72
2023-09-27T03:35:28.104Z,86.72
2023-09-27T03:37:58.196Z,86.63
2023-09-27T03:40:26.192Z,86.67
2023-09-27T03:42:54.121Z,86.66
2023-09-27T03:45:22.208Z,86.63
2023-09-27T03:47:51.258Z,86.56
2023-09-27T03:50:21.270Z,86.47
2023-09-27T03:52:49.322Z,86.34
2023-09-27T03:55:17.268Z,86.25
2023-09-27T03:57:45.238Z,86.37
2023-09-27T04:04:56.617Z,86.75
2023-09-27T04:07:24.873Z,86.95
2023-09-27T04:09:53.585Z,87.35
2023-09-27T04:12:21.623Z,87.55
2023-09-27T04:14:49.622Z,87.89
2023-09-27T04:17:17.756Z,87.93
2023-09-27T04:19:45.814Z,88.18
2023-09-27T04:22:13.824Z,88.53
2023-09-27T04:24:41.831Z,88.82
2023-09-27T04:27:09.784Z,89.34
2023-09-27T04:29:38.031Z,89.59
2023-09-27T04:34:37.564Z,89.27
2023-09-27T04:37:05.561Z,89.80
2023-09-27T04:39:33.595Z,90.25
2023-09-27T04:42:01.519Z,90.47
2023-09-27T04:44:29.810Z,90.73
2023-09-27T04:46:58.238Z,91.20
2023-09-27T04:49:27.054Z,91.36
2023-09-27T04:51:55.004Z,91.58
2023-09-27T04:54:22.958Z,91.80
2023-09-27T04:56:50.941Z,92.03
2023-09-27T04:59:27.954Z,92.16
2023-09-27T05:02:02.548Z,92.24
2023-09-27T05:04:31.280Z,92.31
2023-09-27T05:06:59.687Z,92.41
2023-09-27T05:09:28.949Z,92.44
2023-09-27T05:11:57.545Z,92.49
2023-09-27T05:14:26.096Z,92.49
2023-09-27T05:16:54.736Z,92.49
2023-09-27T05:19:23.219Z,92.51
2023-09-27T05:21:52.022Z,92.49
2023-09-27T05:24:20.808Z,92.47
2023-09-27T05:26:49.680Z,92.45
2023-09-27T05:29:18.519Z,92.43
2023-09-27T05:31:48.407Z,92.42
2023-09-27T05:34:16.726Z,92.42
2023-09-27T05:36:44.660Z,92.42
2023-09-27T05:39:12.933Z,92.41
2023-09-27T05:41:41.137Z,92.39
2023-09-27T05:44:09.564Z,92.36
2023-09-27T05:46:37.806Z,92.30
2023-09-27T05:49:09.445Z,92.20
2023-09-27T05:51:37.921Z,92.13
2023-09-27T05:54:07.041Z,91.94
2023-09-27T05:56:35.172Z,91.74
2023-09-27T05:59:04.500Z,91.57
2023-09-27T06:01:33.272Z,90.24
2023-09-27T06:04:01.422Z,88.91
2023-09-27T06:06:30.306Z,88.20
2023-09-27T06:08:59.795Z,87.69
2023-09-27T06:11:29.466Z,87.87
2023-09-27T06:14:00.223Z,87.03
2023-09-27T06:16:29.626Z,86.86
2023-09-27T06:18:59.552Z,86.43
2023-09-27T06:21:27.981Z,86.10
2023-09-27T06:23:56.242Z,84.76
2023-09-27T06:26:24.161Z,84.28
2023-09-27T06:28:52.318Z,83.62
2023-09-27T06:31:20.896Z,83.17
2023-09-27T06:33:49.102Z,83.33
2023-09-27T06:36:17.531Z,83.08
2023-09-27T06:38:45.634Z,82.23
2023-09-27T06:41:16.962Z,81.59
2023-09-27T06:43:45.550Z,81.22
2023-09-27T06:46:17.975Z,80.93
2023-09-27T06:48:46.978Z,80.32
2023-09-27T06:51:15.260Z,79.85
2023-09-27T06:53:43.870Z,79.50
2023-09-27T06:56:11.842Z,78.76
2023-09-27T06:58:39.716Z,77.80
2023-09-27T07:01:08.287Z,76.80
2023-09-27T07:03:41.195Z,76.60
2023-09-27T07:06:09.602Z,76.72
2023-09-27T07:08:37.583Z,76.71
2023-09-27T07:11:09.749Z,76.03
2023-09-27T07:13:41.098Z,75.12
2023-09-27T07:16:28.524Z,74.82
2023-09-27T07:19:00.868Z,73.98
2023-09-27T07:21:29.783Z,72.33
2023-09-27T07:23:57.611Z,73.82
2023-09-27T07:26:26.169Z,72.15
2023-09-27T07:28:54.239Z,70.32
2023-09-27T07:31:22.245Z,70.35
2023-09-27T07:33:53.707Z,69.34
2023-09-27T07:36:25.450Z,69.80
2023-09-27T07:38:53.876Z,69.96
2023-09-27T07:41:22.329Z,69.68
2023-09-27T07:43:51.937Z,69.02
2023-09-27T07:46:20.765Z,67.52
2023-09-27T07:48:48.738Z,68.39
2023-09-27T07:51:20.602Z,66.46
2023-09-27T07:53:48.549Z,67.25
2023-09-27T07:56:21.054Z,66.62
2023-09-27T07:58:54.286Z,66.11
2023-09-27T08:01:23.244Z,66.10
2023-09-27T08:03:54.973Z,66.03
2023-09-27T08:06:24.442Z,64.96
2023-09-27T08:08:53.606Z,64.24
2023-09-27T08:11:21.716Z,64.43
2023-09-27T08:13:49.601Z,63.75
2023-09-27T08:16:17.791Z,64.02
2023-09-27T08:18:45.752Z,64.60
2023-09-27T08:21:13.624Z,63.20
2023-09-27T08:23:42.484Z,62.71
2023-09-27T08:26:13.867Z,60.96
2023-09-27T08:28:41.940Z,62.19
2023-09-27T08:31:11.004Z,61.51
2023-09-27T08:33:39.420Z,62.12
2023-09-27T08:36:07.592Z,62.82
2023-09-27T08:38:35.660Z,63.08
2023-09-27T08:41:05.222Z,62.07
2023-09-27T08:43:38.754Z,60.96
2023-09-27T08:46:06.983Z,61.02
2023-09-27T08:48:35.586Z,60.90
2023-09-27T08:51:06.108Z,61.62
2023-09-27T08:53:36.312Z,60.97
2023-09-27T08:56:05.534Z,59.40
2023-09-27T08:58:35.573Z,60.28
2023-09-27T09:01:07.707Z,60.05
2023-09-27T09:03:37.542Z,59.79
2023-09-27T09:06:12.156Z,60.29
2023-09-27T09:08:44.215Z,60.01
2023-09-27T09:11:13.232Z,60.20
2023-09-27T09:13:58.038Z,59.50
2023-09-27T09:16:25.982Z,59.39
2023-09-27T09:18:56.534Z,59.39
2023-09-27T09:21:27.214Z,58.65
2023-09-27T09:23:56.034Z,58.77
2023-09-27T09:26:31.599Z,58.74
2023-09-27T09:29:02.177Z,59.16
2023-09-27T09:31:34.517Z,59.44
2023-09-27T09:34:06.298Z,59.97
2023-09-27T09:36:35.111Z,62.22
2023-09-27T09:39:06.781Z,60.49
2023-09-27T09:41:50.824Z,60.64
2023-09-27T09:44:20.848Z,60.55
2023-09-27T09:46:50.069Z,57.89
2023-09-27T09:49:18.018Z,57.06
2023-09-27T09:51:49.923Z,58.63
2023-09-27T09:54:22.362Z,58.50
2023-09-27T09:57:00.961Z,58.74
2023-09-27T09:59:39.374Z,57.01
2023-09-27T10:02:17.616Z,56.47
2023-09-27T10:05:35.527Z,55.55
2023-09-27T10:08:04.169Z,56.61
2023-09-27T10:10:32.081Z,56.52
2023-09-27T10:13:00.670Z,55.76
2023-09-27T10:15:29.345Z,56.43
2023-09-27T10:18:16.026Z,56.54
2023-09-27T10:21:02.068Z,55.75
2023-09-27T10:23:45.179Z,55.02
2023-09-27T10:26:24.245Z,55.40
2023-09-27T10:29:08.119Z,55.31
2023-09-27T10:31:59.400Z,55.36
2023-09-27T10:34:30.474Z,56.10
2023-09-27T10:39:32.743Z,55.43
2023-09-27T10:42:00.625Z,54.96
2023-09-27T10:44:32.752Z,55.09
2023-09-27T10:47:02.343Z,54.78
2023-09-27T10:49:34.837Z,54.32
2023-09-27T10:52:07.069Z,54.68
2023-09-27T10:54:36.525Z,54.33
2023-09-27T10:57:04.609Z,54.03
2023-09-27T10:59:32.871Z,54.20
2023-09-27T11:04:38.011Z,52.98
2023-09-27T11:07:06.240Z,52.52
2023-09-27T11:09:44.808Z,53.25
2023-09-27T11:12:22.190Z,52.14
2023-09-27T11:14:50.480Z,51.29
2023-09-27T11:17:24.409Z,52.01
2023-09-27T11:19:53.777Z,51.27
2023-09-27T11:22:29.446Z,50.96
2023-09-27T11:24:57.787Z,50.63
2023-09-27T11:27:27.068Z,50.55
2023-09-27T11:29:58.338Z,49.79
2023-09-27T11:32:27.103Z,50.53
2023-09-27T11:34:59.345Z,51.26
2023-09-27T11:37:29.789Z,51.32
2023-09-27T11:39:58.650Z,50.65
2023-09-27T11:42:27.963Z,51.63
2023-09-27T11:45:09.327Z,51.06
2023-09-27T11:47:50.857Z,51.32
2023-09-27T11:50:20.889Z,50.48
2023-09-27T11:52:49.177Z,50.67
2023-09-27T11:55:18.262Z,50.61
2023-09-27T11:57:47.536Z,50.52
2023-09-27T12:00:18.548Z,49.48
2023-09-27T12:02:56.394Z,50.65
2023-09-27T12:05:28.355Z,49.36
2023-09-27T12:07:57.075Z,49.27
2023-09-27T12:10:25.862Z,49.38
2023-09-27T12:12:55.592Z,50.06
2023-09-27T12:15:23.904Z,50.07
2023-09-27T12:17:52.155Z,49.46
2023-09-27T12:20:36.042Z,49.22
2023-09-27T12:23:05.079Z,48.51
2023-09-27T12:25:34.839Z,48.97
2023-09-27T12:28:04.455Z,49.56
2023-09-27T12:30:32.524Z,48.70
2023-09-27T12:33:00.765Z,48.09
2023-09-27T12:35:29.382Z,48.24
2023-09-27T12:37:57.434Z,48.45
2023-09-27T12:40:25.614Z,48.35
2023-09-27T12:42:53.809Z,49.11
2023-09-27T12:45:22.009Z,49.28
2023-09-27T12:47:50.303Z,47.35
2023-09-27T12:50:22.033Z,46.96
2023-09-27T12:52:50.287Z,46.50
2023-09-27T12:55:18.851Z,46.76
2023-09-27T12:57:47.804Z,46.81
2023-09-27T13:00:16.662Z,47.01
2023-09-27T13:02:45.312Z,46.55
2023-09-27T13:05:13.421Z,47.11
2023-09-27T13:07:41.853Z,47.72
2023-09-27T13:10:10.345Z,47.28
2023-09-27T13:12:41.458Z,48.02
2023-09-27T13:15:11.744Z,47.35
2023-09-27T13:17:40.169Z,47.40
2023-09-27T13:20:11.758Z,47.55
2023-09-27T13:22:40.172Z,48.25
2023-09-27T13:25:12.059Z,48.63
2023-09-27T13:27:41.581Z,48.76
2023-09-27T13:30:18.760Z,49.07
2023-09-27T13:32:59.807Z,48.41
2023-09-27T13:35:28.133Z,49.12
2023-09-27T13:37:56.196Z,49.22
2023-09-27T13:40:24.291Z,49.28
2023-09-27T13:42:52.288Z,49.15
2023-09-27T13:45:20.582Z,49.66
2023-09-27T13:47:49.054Z,49.92
2023-09-27T13:50:17.596Z,49.57
2023-09-27T13:52:47.463Z,48.23
2023-09-27T13:55:16.264Z,48.14
2023-09-27T13:57:44.412Z,48.26
2023-09-27T14:00:14.781Z,47.28
2023-09-27T14:02:44.148Z,47.05
2023-09-27T14:05:13.213Z,46.78
2023-09-27T14:07:43.651Z,46.88
2023-09-27T14:10:11.991Z,46.45
2023-09-27T14:12:40.374Z,46.64
2023-09-27T14:15:10.288Z,47.08
2023-09-27T14:17:40.189Z,47.35
2023-09-27T14:20:09.201Z,47.37
2023-09-27T14:22:37.858Z,46.88
2023-09-27T14:25:09.312Z,47.10
2023-09-27T14:27:37.815Z,47.08
2023-09-27T14:30:07.580Z,46.95
2023-09-27T14:32:35.859Z,46.65
2023-09-27T14:35:04.133Z,46.45
2023-09-27T14:37:32.419Z,46.50
2023-09-27T14:40:00.415Z,47.05
2023-09-27T14:42:28.531Z,47.74
2023-09-27T14:44:58.465Z,48.10
2023-09-27T14:47:27.123Z,47.07
2023-09-27T14:49:58.575Z,47.05
2023-09-27T14:52:28.473Z,47.77
2023-09-27T14:54:56.773Z,47.75
2023-09-27T14:57:24.813Z,47.55
2023-09-27T14:59:53.814Z,47.68
2023-09-27T15:02:22.284Z,48.26
2023-09-27T15:04:50.859Z,48.49
2023-09-27T15:07:20.832Z,47.95
2023-09-27T15:09:49.240Z,48.31
2023-09-27T15:12:17.817Z,48.49
2023-09-27T15:14:45.898Z,48.25
2023-09-27T15:17:17.666Z,48.64
2023-09-27T15:19:45.824Z,48.55
2023-09-27T15:22:16.039Z,49.15
2023-09-27T15:24:44.339Z,49.39
2023-09-27T15:27:12.749Z,49.63
2023-09-27T15:29:41.204Z,50.03
2023-09-27T15:32:09.505Z,50.38
2023-09-27T15:34:38.242Z,50.49
2023-09-27T15:37:09.490Z,50.73
2023-09-27T15:39:37.608Z,51.24
2023-09-27T15:42:06.474Z,51.71
2023-09-27T15:44:41.650Z,52.02
2023-09-27T15:47:13.215Z,52.23
2023-09-27T15:49:42.005Z,52.84
2023-09-27T15:52:10.284Z,53.13
2023-09-27T15:54:38.420Z,53.36
2023-09-27T15:57:07.198Z,53.36
2023-09-27T15:59:35.265Z,53.79
2023-09-27T16:02:03.887Z,53.86
2023-09-27T16:04:42.325Z,54.04
2023-09-27T16:07:19.461Z,54.73
2023-09-27T16:09:47.522Z,55.99
2023-09-27T16:12:15.895Z,56.33
2023-09-27T16:14:44.077Z,56.78
2023-09-27T16:17:12.046Z,57.67
2023-09-27T16:19:40.135Z,57.53
2023-09-27T16:22:08.557Z,58.63
2023-09-27T16:24:36.547Z,59.47
2023-09-27T16:27:05.299Z,60.30
2023-09-27T16:29:33.470Z,61.17
2023-09-27T16:32:02.711Z,61.50
2023-09-27T16:34:30.889Z,61.52
2023-09-27T16:37:01.886Z,61.97
2023-09-27T16:39:30.072Z,62.32
2023-09-27T16:41:58.104Z,62.73
2023-09-27T16:44:26.225Z,63.14
2023-09-27T16:46:54.181Z,64.34
2023-09-27T16:49:22.213Z,64.95
2023-09-27T16:51:50.359Z,64.81
2023-09-27T16:54:18.923Z,64.41
2023-09-27T16:56:47.826Z,63.95
2023-09-27T16:59:17.808Z,64.60
2023-09-27T17:01:46.014Z,65.00
2023-09-27T17:04:14.104Z,65.24
2023-09-27T17:06:43.447Z,65.46
2023-09-27T17:09:11.771Z,65.79
2023-09-27T17:11:39.899Z,65.91
2023-09-27T17:14:07.937Z,66.13
2023-09-27T17:16:36.166Z,66.35
2023-09-27T17:19:04.950Z,66.66
2023-09-27T17:21:34.667Z,66.83
2023-09-27T17:24:02.999Z,66.87
2023-09-27T17:26:31.261Z,66.92
2023-09-27T17:28:59.624Z,67.27
2023-09-27T17:31:27.841Z,67.47
2023-09-27T17:33:56.174Z,67.73
2023-09-27T17:36:25.204Z,67.81
2023-09-27T17:38:53.382Z,67.93
2023-09-27T17:41:21.440Z,68.01
2023-09-27T17:43:49.569Z,67.59
2023-09-27T17:46:25.531Z,68.01
2023-09-27T17:48:54.626Z,68.48
2023-09-27T17:51:22.608Z,68.75
2023-09-27T17:53:52.320Z,69.04
2023-09-27T17:56:20.497Z,69.36
2023-09-27T17:58:48.959Z,69.03
2023-09-27T18:01:21.402Z,68.73
2023-09-27T18:03:49.532Z,69.02
2023-09-27T18:06:18.347Z,68.57
2023-09-27T18:08:46.530Z,68.49
2023-09-27T18:11:16.552Z,68.56
2023-09-27T18:13:45.041Z,67.46
2023-09-27T18:16:18.785Z,67.90
2023-09-27T18:18:49.054Z,67.22
2023-09-27T18:21:19.351Z,67.34
2023-09-27T18:23:49.930Z,67.79
2023-09-27T18:26:18.705Z,68.25
2023-09-27T18:28:47.095Z,69.50
2023-09-27T18:31:15.311Z,70.03
2023-09-27T18:33:43.411Z,70.70
2023-09-27T18:36:11.498Z,69.95
2023-09-27T18:38:39.437Z,69.65
2023-09-27T18:41:07.556Z,69.58
2023-09-27T18:43:35.622Z,69.79
2023-09-27T18:46:06.102Z,70.10
2023-09-27T18:48:34.491Z,69.89
2023-09-27T18:51:02.684Z,70.37
2023-09-27T18:53:30.904Z,69.58
2023-09-27T18:55:59.206Z,71.02
2023-09-27T18:58:27.651Z,72.00
2023-09-27T19:04:37.552Z,72.92
2023-09-27T19:07:05.674Z,73.69
2023-09-27T19:09:33.742Z,72.97
2023-09-27T19:12:01.825Z,72.88
2023-09-27T19:14:29.929Z,73.36
2023-09-27T19:16:58.002Z,72.43
2023-09-27T19:19:26.628Z,74.36
2023-09-27T19:21:54.814Z,75.99
2023-09-27T19:24:22.960Z,76.55
2023-09-27T19:26:51.082Z,76.80
2023-09-27T19:29:19.718Z,76.14
2023-09-27T19:31:47.949Z,76.30
2023-09-27T19:34:16.682Z,76.19
2023-09-27T19:36:45.522Z,76.58
2023-09-27T19:39:14.452Z,76.12
2023-09-27T19:41:45.019Z,77.13
2023-09-27T19:44:14.248Z,76.33
2023-09-27T19:46:42.869Z,75.99
2023-09-27T19:49:11.160Z,75.74
2023-09-27T19:51:39.425Z,76.06
2023-09-27T19:54:08.329Z,77.07
2023-09-27T19:56:36.367Z,76.55
2023-09-27T19:59:05.101Z,76.46
2023-09-27T20:01:35.205Z,77.85
2023-09-27T20:04:04.055Z,78.39
2023-09-27T20:06:37.754Z,77.37
2023-09-27T20:09:06.212Z,77.39
2023-09-27T20:11:34.484Z,78.04
2023-09-27T20:14:04.553Z,76.92
2023-09-27T20:16:34.077Z,76.63
2023-09-27T20:19:06.764Z,77.17
2023-09-27T20:21:36.506Z,78.15
2023-09-27T20:24:04.988Z,78.30
2023-09-27T20:26:35.369Z,78.84
2023-09-27T20:29:04.059Z,78.05
2023-09-27T20:31:32.274Z,77.81
2023-09-27T20:34:00.485Z,77.64
2023-09-27T20:36:28.609Z,77.74
2023-09-27T20:38:56.809Z,77.75
2023-09-27T20:41:24.822Z,77.56
2023-09-27T20:43:53.163Z,78.14
2023-09-27T20:46:21.543Z,77.53
2023-09-27T20:48:49.591Z,77.42
2023-09-27T20:51:17.718Z,77.66
2023-09-27T20:53:45.748Z,77.96
2023-09-27T20:56:13.821Z,77.82
2023-09-27T20:58:42.738Z,78.68
2023-09-27T21:01:37.027Z,80.54
2023-09-27T21:04:06.085Z,81.28
2023-09-27T21:06:34.626Z,81.30
2023-09-27T21:09:04.368Z,80.90
2023-09-27T21:11:32.643Z,80.67
2023-09-27T21:14:02.853Z,80.70
2023-09-27T21:16:32.913Z,80.89
2023-09-27T21:19:01.385Z,81.97
2023-09-27T21:21:31.224Z,81.24
2023-09-27T21:23:59.614Z,80.63
2023-09-27T21:26:28.098Z,80.38
2023-09-27T21:28:56.347Z,79.86
2023-09-27T21:31:24.549Z,80.36
2023-09-27T21:33:53.806Z,79.72
2023-09-27T21:36:21.980Z,79.53
2023-09-27T21:38:50.156Z,79.25
2023-09-27T21:41:19.129Z,78.98
2023-09-27T21:43:47.397Z,79.14
2023-09-27T21:46:19.127Z,78.67
2023-09-27T21:48:51.301Z,78.35
2023-09-27T21:51:19.887Z,78.48
2023-09-27T21:53:47.936Z,78.57
2023-09-27T21:56:16.439Z,78.32
2023-09-27T21:58:45.085Z,78.92
2023-09-27T22:01:14.507Z,80.20
2023-09-27T22:03:43.334Z,81.80
2023-09-27T22:06:11.822Z,82.48
2023-09-27T22:08:49.374Z,82.81
2023-09-27T22:11:18.096Z,81.87
2023-09-27T22:13:49.314Z,80.93
2023-09-27T22:16:22.516Z,80.94
2023-09-27T22:18:51.004Z,81.12
2023-09-27T22:21:29.050Z,80.62
2023-09-27T22:23:58.918Z,80.44
2023-09-27T22:26:26.964Z,80.38
2023-09-27T22:28:57.228Z,79.83
2023-09-27T22:31:32.180Z,79.33
2023-09-27T22:34:11.665Z,79.56
2023-09-27T22:36:47.842Z,80.51
2023-09-27T22:39:20.557Z,81.15
2023-09-27T22:41:53.304Z,80.56
2023-09-27T22:44:24.147Z,80.54
2023-09-27T22:46:54.424Z,80.24
2023-09-27T22:49:24.589Z,79.78
2023-09-27T22:51:53.480Z,79.29
2023-09-27T22:54:22.918Z,79.55
2023-09-27T22:56:53.855Z,80.63
2023-09-27T22:59:22.833Z,80.85
2023-09-27T23:01:56.160Z,81.55
2023-09-27T23:04:24.920Z,81.09
2023-09-27T23:07:03.335Z,81.64
2023-09-27T23:09:38.186Z,81.17
2023-09-27T23:12:20.759Z,80.76
2023-09-27T23:15:04.553Z,80.72
2023-09-27T23:17:52.831Z,80.92
2023-09-27T23:20:28.712Z,82.09
2023-09-27T23:22:59.129Z,81.64
2023-09-27T23:25:53.337Z,81.69
2023-09-27T23:28:41.654Z,81.04
2023-09-27T23:31:10.347Z,80.54
2023-09-27T23:33:43.584Z,80.49
2023-09-27T23:36:27.016Z,80.27
2023-09-27T23:38:59.378Z,79.82
2023-09-27T23:41:32.370Z,80.20
2023-09-27T23:44:10.122Z,80.22
2023-09-27T23:46:40.683Z,80.95
2023-09-27T23:49:17.730Z,81.61
2023-09-27T23:51:46.050Z,81.83
2023-09-27T23:54:14.973Z,81.24
2023-09-27T23:56:43.229Z,81.49
2023-09-27T23:59:21.596Z,81.54
